Terminal Aerodrome Forecast
Issued by NWS

Home | Current Version | Previous Version | Text Only | Print | Product List | Glossary Off
Versions: 1 2 3 4 5 6 7 8 9 10 11 12 13 14

000
FTUS43 KICT 311720
TAFRSL
TAF
KRSL 311720Z 3118/0118 18012G20KT P6SM SKC
     FM010100 17010KT P6SM SKC
     FM011400 18017G23KT P6SM BKN250=

USA.gov is the U.S. government's official web portal to all federal, state and local government web resources and services.